createdAt,value
2023-07-30T00:01:17.209Z,2.73
2023-07-30T00:03:43.838Z,3.43
2023-07-30T00:06:10.313Z,2.60
2023-07-30T00:08:38.386Z,3.17
2023-07-30T00:11:04.928Z,3.50
2023-07-30T00:13:31.472Z,2.80
2023-07-30T00:15:57.936Z,3.57
2023-07-30T00:18:24.513Z,3.43
2023-07-30T00:20:51.181Z,3.13
2023-07-30T00:23:17.765Z,3.27
2023-07-30T00:25:44.190Z,2.87
2023-07-30T00:28:10.763Z,3.23
2023-07-30T00:30:37.923Z,4.33
2023-07-30T00:33:04.482Z,4.47
2023-07-30T00:35:31.088Z,4.33
2023-07-30T00:37:57.491Z,6.10
2023-07-30T00:40:23.959Z,3.00
2023-07-30T00:42:50.472Z,7.50
2023-07-30T00:45:17.120Z,2.57
2023-07-30T00:47:44.585Z,2.90
2023-07-30T00:50:13.848Z,2.70
2023-07-30T00:52:41.028Z,4.00
2023-07-30T00:55:09.266Z,3.73
2023-07-30T00:57:38.025Z,5.13
2023-07-30T01:00:10.036Z,3.07
2023-07-30T01:02:37.969Z,3.97
2023-07-30T01:05:05.074Z,5.00
2023-07-30T01:07:32.456Z,6.20
2023-07-30T01:10:01.275Z,4.23
2023-07-30T01:12:30.373Z,5.30
2023-07-30T01:14:57.192Z,6.00
2023-07-30T01:17:24.328Z,4.20
2023-07-30T01:19:51.004Z,4.20
2023-07-30T01:22:17.557Z,3.90
2023-07-30T01:24:44.179Z,6.03
2023-07-30T01:27:17.409Z,5.17
2023-07-30T01:29:52.916Z,7.03
2023-07-30T01:32:25.257Z,4.67
2023-07-30T01:34:53.954Z,6.93
2023-07-30T01:37:21.942Z,7.73
2023-07-30T01:39:50.142Z,4.50
2023-07-30T01:42:17.131Z,4.83
2023-07-30T01:44:43.651Z,6.80
2023-07-30T01:47:10.330Z,4.63
2023-07-30T01:49:36.903Z,6.67
2023-07-30T01:52:03.552Z,7.10
2023-07-30T01:54:29.981Z,5.60
2023-07-30T01:56:56.428Z,5.20
2023-07-30T01:59:22.878Z,7.60
2023-07-30T02:01:49.917Z,5.83
2023-07-30T02:04:17.676Z,6.03
2023-07-30T02:06:44.119Z,6.47
2023-07-30T02:09:10.582Z,4.93
2023-07-30T02:11:37.466Z,7.27
2023-07-30T02:14:04.684Z,7.73
2023-07-30T02:16:31.376Z,6.83
2023-07-30T02:18:57.908Z,7.63
2023-07-30T02:21:24.366Z,6.97
2023-07-30T02:23:51.196Z,8.30
2023-07-30T02:26:17.721Z,7.33
2023-07-30T02:28:44.573Z,6.60
2023-07-30T02:31:12.516Z,5.97
2023-07-30T02:33:39.209Z,5.73
2023-07-30T02:36:06.120Z,6.17
2023-07-30T02:38:32.622Z,4.67
2023-07-30T02:40:59.035Z,6.80
2023-07-30T02:43:25.661Z,5.23
2023-07-30T02:45:52.139Z,6.67
2023-07-30T02:48:18.636Z,7.40
2023-07-30T02:50:45.647Z,8.13
2023-07-30T02:53:12.212Z,7.57
2023-07-30T02:55:38.751Z,6.53
2023-07-30T02:58:05.359Z,6.30
2023-07-30T03:00:31.866Z,6.37
2023-07-30T03:02:58.582Z,5.73
2023-07-30T03:05:25.201Z,7.30
2023-07-30T03:07:51.714Z,5.80
2023-07-30T03:10:18.470Z,6.37
2023-07-30T03:12:44.941Z,8.00
2023-07-30T03:15:11.488Z,8.00
2023-07-30T03:17:38.489Z,7.30
2023-07-30T03:20:05.825Z,5.63
2023-07-30T03:22:32.325Z,9.63
2023-07-30T03:24:58.764Z,5.90
2023-07-30T03:27:25.263Z,6.70
2023-07-30T03:29:51.858Z,6.60
2023-07-30T03:32:18.419Z,6.57
2023-07-30T03:34:44.861Z,5.80
2023-07-30T03:37:11.450Z,7.37
2023-07-30T03:39:38.200Z,5.53
2023-07-30T03:42:06.013Z,6.63
2023-07-30T03:44:32.489Z,5.73
2023-07-30T03:46:58.912Z,5.50
2023-07-30T03:49:25.358Z,8.03
2023-07-30T03:51:52.015Z,9.37
2023-07-30T03:54:18.545Z,7.97
2023-07-30T03:56:44.994Z,9.07
2023-07-30T03:59:11.485Z,7.77
2023-07-30T04:01:38.497Z,8.97
2023-07-30T04:04:05.646Z,7.03
2023-07-30T04:06:32.219Z,6.93
2023-07-30T04:08:58.663Z,6.33
2023-07-30T04:11:25.566Z,6.03
2023-07-30T04:13:52.165Z,6.50
2023-07-30T04:16:18.751Z,7.00
2023-07-30T04:18:45.182Z,6.30
2023-07-30T04:21:11.727Z,7.73
2023-07-30T04:23:38.410Z,5.67
2023-07-30T04:26:05.015Z,7.57
2023-07-30T04:28:31.905Z,6.30
2023-07-30T04:30:59.459Z,7.40
2023-07-30T04:33:27.502Z,9.17
2023-07-30T04:35:54.683Z,7.23
2023-07-30T04:38:21.931Z,7.83
2023-07-30T04:40:48.624Z,8.93
2023-07-30T04:43:16.505Z,9.33
2023-07-30T04:45:44.100Z,9.40
2023-07-30T04:48:10.904Z,8.10
2023-07-30T04:50:38.311Z,8.60
2023-07-30T04:53:05.907Z,9.70
2023-07-30T04:55:33.462Z,9.07
2023-07-30T04:58:00.879Z,10.47
2023-07-30T05:00:27.345Z,9.90
2023-07-30T05:02:53.834Z,9.60
2023-07-30T05:05:20.326Z,10.20
2023-07-30T05:07:46.884Z,6.90
2023-07-30T05:10:13.316Z,12.77
2023-07-30T05:12:40.103Z,9.73
2023-07-30T05:15:07.287Z,10.93
2023-07-30T05:17:34.141Z,11.30
2023-07-30T05:20:00.639Z,10.47
2023-07-30T05:22:27.054Z,9.77
2023-07-30T05:24:53.662Z,9.00
2023-07-30T05:27:20.065Z,11.40
2023-07-30T05:29:48.263Z,12.90
2023-07-30T05:32:15.924Z,10.73
2023-07-30T05:34:42.602Z,11.17
2023-07-30T05:37:09.162Z,9.17
2023-07-30T05:39:36.069Z,7.20
2023-07-30T05:42:02.662Z,10.50
2023-07-30T05:44:29.085Z,10.63
2023-07-30T05:46:55.518Z,9.30
2023-07-30T05:49:21.971Z,8.70
2023-07-30T05:51:48.468Z,8.97
2023-07-30T05:54:15.122Z,5.07
2023-07-30T05:56:41.628Z,8.93
2023-07-30T05:59:08.156Z,9.63
2023-07-30T06:01:34.817Z,9.13
2023-07-30T06:04:01.604Z,8.97
2023-07-30T06:06:30.264Z,7.87
2023-07-30T06:08:56.770Z,9.63
2023-07-30T06:11:23.762Z,8.70
2023-07-30T06:13:50.451Z,7.37
2023-07-30T06:16:19.213Z,7.70
2023-07-30T06:18:45.862Z,8.47
2023-07-30T06:21:12.693Z,8.83
2023-07-30T06:23:39.356Z,7.33
2023-07-30T06:26:06.201Z,10.20
2023-07-30T06:28:32.910Z,9.63
2023-07-30T06:31:03.427Z,12.17
2023-07-30T06:33:32.854Z,9.40
2023-07-30T06:36:00.047Z,8.33
2023-07-30T06:38:26.845Z,9.07
2023-07-30T06:40:53.395Z,10.23
2023-07-30T06:43:19.836Z,7.70
2023-07-30T06:45:46.293Z,10.87
2023-07-30T06:48:12.868Z,5.70
2023-07-30T06:50:40.356Z,7.27
2023-07-30T06:53:07.005Z,7.93
2023-07-30T06:55:33.959Z,8.00
2023-07-30T06:58:00.452Z,10.90
2023-07-30T07:00:26.998Z,5.70
2023-07-30T07:02:53.530Z,9.10
2023-07-30T07:05:20.716Z,9.80
2023-07-30T07:07:47.219Z,6.60
2023-07-30T07:10:13.768Z,7.10
2023-07-30T07:12:40.638Z,7.50
2023-07-30T07:15:08.005Z,10.73
2023-07-30T07:17:34.467Z,8.40
2023-07-30T07:20:01.097Z,10.60
2023-07-30T07:22:27.845Z,11.07
2023-07-30T07:24:54.594Z,9.33
2023-07-30T07:27:21.638Z,6.13
2023-07-30T07:29:48.076Z,9.60
2023-07-30T07:32:14.544Z,8.57
2023-07-30T07:34:41.018Z,11.63
2023-07-30T07:37:07.594Z,10.47
2023-07-30T07:39:34.632Z,8.57
2023-07-30T07:42:01.969Z,9.27
2023-07-30T07:44:28.400Z,8.23
2023-07-30T07:46:54.932Z,9.30
2023-07-30T07:49:21.372Z,9.83
2023-07-30T07:51:47.860Z,7.87
2023-07-30T07:54:14.393Z,9.63
2023-07-30T07:56:40.881Z,10.47
2023-07-30T07:59:07.496Z,9.13
2023-07-30T08:01:34.125Z,9.17
2023-07-30T08:04:00.796Z,10.03
2023-07-30T08:06:27.914Z,11.67
2023-07-30T08:08:54.305Z,12.67
2023-07-30T08:11:20.745Z,10.13
2023-07-30T08:13:47.202Z,11.90
2023-07-30T08:16:13.722Z,11.23
2023-07-30T08:18:40.372Z,11.03
2023-07-30T08:21:07.220Z,12.20
2023-07-30T08:23:33.664Z,8.67
2023-07-30T08:26:00.073Z,9.90
2023-07-30T08:28:27.236Z,12.27
2023-07-30T08:30:53.680Z,9.97
2023-07-30T08:33:20.121Z,14.07
2023-07-30T08:35:46.544Z,11.37
2023-07-30T08:38:13.120Z,10.63
2023-07-30T08:40:39.659Z,11.23
2023-07-30T08:43:06.779Z,9.17
2023-07-30T08:45:33.455Z,11.63
2023-07-30T08:47:59.934Z,11.30
2023-07-30T08:50:27.336Z,13.07
2023-07-30T08:52:55.847Z,13.50
2023-07-30T08:55:23.765Z,11.03
2023-07-30T09:02:05.320Z,14.30
2023-07-30T09:04:36.787Z,15.20
2023-07-30T09:07:03.401Z,17.87
2023-07-30T09:09:29.881Z,15.93
2023-07-30T09:11:56.455Z,14.67
2023-07-30T09:14:22.968Z,13.53
2023-07-30T09:16:49.665Z,16.97
2023-07-30T09:19:18.941Z,13.73
2023-07-30T09:21:45.548Z,14.87
2023-07-30T09:24:12.005Z,13.63
2023-07-30T09:26:46.849Z,14.13
2023-07-30T09:29:13.887Z,16.17
2023-07-30T09:31:57.820Z,12.67
2023-07-30T09:34:25.688Z,16.10
2023-07-30T09:36:54.188Z,13.40
2023-07-30T09:39:24.363Z,17.40
2023-07-30T09:41:52.623Z,13.30
2023-07-30T09:44:20.828Z,16.40
2023-07-30T09:46:50.308Z,13.30
2023-07-30T09:49:17.654Z,15.03
2023-07-30T09:51:44.734Z,11.50
2023-07-30T09:54:13.595Z,12.90
2023-07-30T09:56:41.839Z,10.80
2023-07-30T09:59:10.210Z,13.50
2023-07-30T10:02:07.656Z,12.20
2023-07-30T10:04:36.896Z,13.60
2023-07-30T10:07:11.693Z,15.93
2023-07-30T10:09:44.685Z,14.43
2023-07-30T10:12:14.828Z,20.40
2023-07-30T10:14:42.091Z,17.97
2023-07-30T10:17:11.548Z,15.00
2023-07-30T10:19:38.706Z,14.57
2023-07-30T10:22:14.324Z,13.37
2023-07-30T10:24:41.612Z,13.70
2023-07-30T10:27:09.594Z,13.77
2023-07-30T10:29:37.327Z,16.10
2023-07-30T10:32:03.999Z,19.47
2023-07-30T10:34:47.942Z,16.67
2023-07-30T10:37:25.303Z,16.87
2023-07-30T10:39:51.932Z,21.07
2023-07-30T10:42:19.552Z,19.23
2023-07-30T10:44:46.606Z,19.27
2023-07-30T10:47:19.905Z,22.80
2023-07-30T10:50:02.962Z,22.27
2023-07-30T10:52:29.446Z,23.03
2023-07-30T10:55:02.366Z,17.13
2023-07-30T10:57:35.086Z,19.07
2023-07-30T11:00:01.795Z,19.33
2023-07-30T11:02:29.941Z,20.17
2023-07-30T11:04:56.548Z,23.13
2023-07-30T11:07:22.978Z,20.97
2023-07-30T11:10:01.057Z,18.73
2023-07-30T11:12:27.528Z,20.40
2023-07-30T11:15:01.810Z,21.10
2023-07-30T11:17:28.281Z,22.17
2023-07-30T11:19:54.797Z,17.53
2023-07-30T11:22:33.442Z,19.60
2023-07-30T11:25:02.370Z,16.03
2023-07-30T11:27:28.879Z,14.70
2023-07-30T11:29:58.407Z,13.60
2023-07-30T11:36:38.784Z,16.67
2023-07-30T11:39:05.822Z,14.70
2023-07-30T11:41:33.424Z,17.17
2023-07-30T11:44:00.203Z,16.63
2023-07-30T11:46:27.382Z,14.37
2023-07-30T11:49:10.961Z,14.07
2023-07-30T11:51:38.052Z,16.73
2023-07-30T11:54:04.901Z,13.23
2023-07-30T11:56:35.021Z,17.40
2023-07-30T11:59:08.162Z,16.17
2023-07-30T12:01:38.133Z,11.67
2023-07-30T12:04:06.882Z,13.07
2023-07-30T12:06:47.779Z,13.33
2023-07-30T12:09:16.793Z,15.40
2023-07-30T12:11:55.471Z,13.37
2023-07-30T12:14:31.165Z,15.70
2023-07-30T12:16:58.663Z,11.50
2023-07-30T12:19:25.215Z,11.17
2023-07-30T12:21:51.865Z,9.13
2023-07-30T12:24:18.419Z,12.47
2023-07-30T12:26:44.851Z,9.90
2023-07-30T12:29:11.302Z,15.07
2023-07-30T12:31:37.977Z,11.50
2023-07-30T12:34:04.840Z,11.87
2023-07-30T12:36:31.345Z,14.63
2023-07-30T12:38:57.804Z,13.13
2023-07-30T12:41:27.080Z,10.33
2023-07-30T12:43:54.365Z,12.00
2023-07-30T12:46:21.340Z,12.93
2023-07-30T12:48:47.840Z,9.47
2023-07-30T12:51:14.388Z,9.60
2023-07-30T12:53:40.900Z,13.33
2023-07-30T12:56:07.652Z,13.10
2023-07-30T12:58:34.316Z,10.57
2023-07-30T13:01:00.930Z,12.00
2023-07-30T13:03:27.531Z,10.00
2023-07-30T13:05:54.106Z,12.50
2023-07-30T13:08:21.738Z,10.27
2023-07-30T13:10:48.218Z,10.03
2023-07-30T13:13:14.687Z,7.93
2023-07-30T13:15:41.170Z,9.07
2023-07-30T13:18:07.895Z,9.73
2023-07-30T13:20:34.366Z,7.40
2023-07-30T13:23:00.840Z,7.70
2023-07-30T13:25:28.513Z,9.00
2023-07-30T13:27:55.106Z,9.97
2023-07-30T13:30:21.676Z,7.90
2023-07-30T13:32:48.197Z,8.10
2023-07-30T13:35:14.858Z,8.30
2023-07-30T13:37:41.309Z,8.27
2023-07-30T13:40:08.541Z,6.87
2023-07-30T13:42:35.086Z,14.13
2023-07-30T13:45:02.753Z,7.60
2023-07-30T13:47:29.325Z,7.07
2023-07-30T13:49:56.045Z,6.33
2023-07-30T13:52:22.497Z,6.67
2023-07-30T13:54:48.998Z,7.30
2023-07-30T13:57:25.744Z,6.60
2023-07-30T13:59:53.133Z,6.70
2023-07-30T14:02:19.716Z,6.87
2023-07-30T14:04:46.223Z,6.07
2023-07-30T14:07:12.800Z,8.03
2023-07-30T14:09:39.235Z,6.77
2023-07-30T14:12:06.831Z,5.47
2023-07-30T14:14:33.291Z,5.83
2023-07-30T14:16:59.825Z,4.33
2023-07-30T14:19:26.284Z,4.90
2023-07-30T14:21:52.898Z,7.73
2023-07-30T14:24:19.360Z,5.30
2023-07-30T14:26:45.796Z,5.63
2023-07-30T14:29:12.281Z,4.97
2023-07-30T14:31:41.179Z,7.63
2023-07-30T14:34:08.323Z,5.27
2023-07-30T14:36:34.851Z,9.03
2023-07-30T14:39:01.326Z,4.93
2023-07-30T14:41:27.806Z,5.47
2023-07-30T14:43:54.236Z,5.67
2023-07-30T14:46:20.848Z,6.70
2023-07-30T14:48:47.363Z,8.03
2023-07-30T14:51:14.103Z,4.87
2023-07-30T14:53:40.749Z,5.80
2023-07-30T14:56:07.236Z,5.03
2023-07-30T14:58:34.120Z,4.03
2023-07-30T15:01:00.567Z,4.80
2023-07-30T15:03:27.074Z,5.20
2023-07-30T15:05:54.040Z,4.20
2023-07-30T15:08:20.591Z,7.77
2023-07-30T15:10:47.191Z,4.40
2023-07-30T15:13:13.903Z,5.97
2023-07-30T15:15:40.479Z,6.53
2023-07-30T15:18:09.516Z,5.80
2023-07-30T15:20:36.216Z,3.93
2023-07-30T15:23:03.483Z,5.10
2023-07-30T15:25:29.944Z,4.27
2023-07-30T15:27:58.297Z,5.20
2023-07-30T15:30:25.501Z,5.87
2023-07-30T15:32:52.280Z,5.80
2023-07-30T15:35:18.979Z,4.60
2023-07-30T15:37:46.569Z,5.37
2023-07-30T15:40:13.919Z,5.53
2023-07-30T15:42:40.727Z,4.77
2023-07-30T15:45:07.807Z,5.17
2023-07-30T15:47:34.377Z,7.07
2023-07-30T15:50:00.997Z,8.93
2023-07-30T15:52:27.611Z,5.13
2023-07-30T15:54:54.669Z,5.60
2023-07-30T15:57:21.132Z,4.13
2023-07-30T15:59:48.875Z,6.47
2023-07-30T16:02:15.380Z,5.37
2023-07-30T16:04:41.913Z,5.20
2023-07-30T16:07:10.276Z,3.93
2023-07-30T16:09:36.932Z,4.90
2023-07-30T16:12:03.642Z,5.73
2023-07-30T16:14:30.087Z,5.33
2023-07-30T16:16:56.635Z,5.50
2023-07-30T16:19:23.940Z,4.77
2023-07-30T16:21:52.711Z,4.17
2023-07-30T16:24:19.386Z,6.63
2023-07-30T16:26:45.893Z,3.10
2023-07-30T16:29:12.395Z,5.80
2023-07-30T16:31:39.300Z,4.87
2023-07-30T16:34:05.873Z,6.17
2023-07-30T16:36:32.439Z,3.03
2023-07-30T16:38:58.978Z,3.70
2023-07-30T16:41:25.447Z,5.93
2023-07-30T16:43:52.013Z,5.57
2023-07-30T16:46:18.531Z,3.30
2023-07-30T16:48:44.988Z,5.30
2023-07-30T16:51:11.453Z,4.63
2023-07-30T16:53:38.892Z,4.67
2023-07-30T16:56:15.996Z,4.93
2023-07-30T16:58:43.773Z,7.40
2023-07-30T17:01:11.890Z,4.37
2023-07-30T17:03:39.518Z,8.67
2023-07-30T17:06:07.193Z,5.57
2023-07-30T17:08:34.580Z,5.80
2023-07-30T17:11:06.512Z,4.27
2023-07-30T17:13:36.637Z,6.57
2023-07-30T17:16:11.161Z,7.93
2023-07-30T17:18:38.780Z,4.13
2023-07-30T17:21:05.705Z,5.43
2023-07-30T17:23:32.474Z,8.63
2023-07-30T17:26:00.441Z,8.10
2023-07-30T17:28:29.536Z,4.67
2023-07-30T17:30:56.986Z,4.87
2023-07-30T17:33:23.573Z,7.67
2023-07-30T17:35:50.144Z,5.10
2023-07-30T17:38:19.282Z,4.87
2023-07-30T17:40:55.997Z,7.67
2023-07-30T17:43:23.651Z,4.27
2023-07-30T17:45:50.477Z,5.27
2023-07-30T17:48:17.915Z,5.00
2023-07-30T17:50:44.491Z,6.10
2023-07-30T17:53:11.008Z,6.80
2023-07-30T17:55:42.108Z,5.97
2023-07-30T17:58:08.750Z,7.03
2023-07-30T18:00:35.268Z,5.83
2023-07-30T18:03:02.381Z,6.03
2023-07-30T18:05:45.212Z,4.70
2023-07-30T18:08:13.083Z,7.93
2023-07-30T18:10:39.558Z,4.10
2023-07-30T18:13:06.383Z,4.57
2023-07-30T18:15:32.926Z,5.50
2023-07-30T18:17:59.488Z,5.40
2023-07-30T18:20:26.080Z,5.60
2023-07-30T18:22:52.538Z,4.43
2023-07-30T18:25:19.036Z,4.83
2023-07-30T18:27:45.481Z,4.97
2023-07-30T18:30:12.023Z,6.00
2023-07-30T18:32:38.651Z,5.10
2023-07-30T18:35:05.723Z,8.80
2023-07-30T18:37:33.289Z,9.77
2023-07-30T18:40:00.595Z,6.17
2023-07-30T18:42:27.209Z,4.53
2023-07-30T18:44:55.070Z,6.13
2023-07-30T18:47:24.352Z,5.27
2023-07-30T18:49:52.296Z,5.50
2023-07-30T18:52:19.534Z,3.67
2023-07-30T18:54:46.217Z,4.50
2023-07-30T18:57:12.925Z,4.40
2023-07-30T18:59:40.009Z,6.53
2023-07-30T19:02:08.421Z,8.23
2023-07-30T19:04:35.270Z,4.40
2023-07-30T19:07:01.755Z,6.50
2023-07-30T19:09:28.299Z,4.23
2023-07-30T19:11:54.804Z,5.40
2023-07-30T19:14:21.352Z,5.93
2023-07-30T19:16:47.868Z,3.70
2023-07-30T19:19:14.563Z,7.03
2023-07-30T19:21:41.245Z,5.87
2023-07-30T19:24:07.740Z,7.97
2023-07-30T19:26:34.209Z,5.17
2023-07-30T19:29:00.709Z,4.07
2023-07-30T19:31:27.211Z,5.33
2023-07-30T19:33:53.674Z,4.80
2023-07-30T19:36:20.113Z,5.67
2023-07-30T19:38:46.668Z,4.23
2023-07-30T19:41:26.285Z,7.07
2023-07-30T19:43:54.526Z,6.17
2023-07-30T19:46:21.235Z,4.67
2023-07-30T19:48:48.099Z,7.33
2023-07-30T19:51:17.335Z,8.57
2023-07-30T19:53:44.405Z,4.57
2023-07-30T19:56:11.137Z,7.37
2023-07-30T19:58:37.730Z,5.60
2023-07-30T20:01:04.512Z,6.10
2023-07-30T20:03:31.764Z,4.43
2023-07-30T20:06:03.463Z,7.00
2023-07-30T20:08:30.035Z,5.00
2023-07-30T20:10:57.340Z,4.17
2023-07-30T20:13:24.795Z,6.30
2023-07-30T20:15:52.376Z,7.23
2023-07-30T20:18:19.333Z,3.40
2023-07-30T20:20:46.102Z,4.53
2023-07-30T20:23:12.748Z,4.50
2023-07-30T20:25:39.931Z,4.43
2023-07-30T20:28:08.445Z,6.17
2023-07-30T20:30:36.516Z,3.70
2023-07-30T20:33:04.332Z,5.50
2023-07-30T20:35:31.296Z,7.53
2023-07-30T20:37:58.026Z,3.37
2023-07-30T20:40:25.183Z,5.70
2023-07-30T20:42:53.260Z,4.37
2023-07-30T20:45:21.285Z,4.90
2023-07-30T20:47:48.808Z,5.27
2023-07-30T20:50:18.537Z,4.77
2023-07-30T20:52:48.991Z,8.50
2023-07-30T20:55:17.677Z,4.23
2023-07-30T20:57:44.865Z,5.40
2023-07-30T21:00:12.288Z,5.90
2023-07-30T21:02:39.151Z,8.37
2023-07-30T21:05:06.560Z,5.10
2023-07-30T21:07:33.253Z,5.67
2023-07-30T21:09:59.753Z,4.03
2023-07-30T21:12:26.447Z,5.10
2023-07-30T21:14:53.017Z,5.90
2023-07-30T21:17:21.959Z,5.37
2023-07-30T21:19:49.146Z,4.83
2023-07-30T21:22:15.840Z,6.70
2023-07-30T21:24:42.522Z,5.63
2023-07-30T21:27:09.378Z,5.47
2023-07-30T21:29:35.925Z,7.33
2023-07-30T21:32:03.121Z,7.10
2023-07-30T21:34:29.686Z,6.23
2023-07-30T21:36:56.095Z,5.17
2023-07-30T21:39:22.592Z,8.37
2023-07-30T21:41:49.028Z,4.93
2023-07-30T21:44:15.481Z,5.83
2023-07-30T21:46:42.227Z,4.97
2023-07-30T21:49:09.115Z,5.97
2023-07-30T21:51:35.661Z,7.63
2023-07-30T21:54:02.188Z,8.77
2023-07-30T21:56:28.651Z,7.07
2023-07-30T21:58:55.134Z,8.77
2023-07-30T22:01:21.632Z,7.97
2023-07-30T22:03:48.055Z,6.20
2023-07-30T22:06:42.267Z,6.03
2023-07-30T22:09:09.209Z,6.50
2023-07-30T22:11:35.669Z,6.27
2023-07-30T22:14:02.222Z,6.17
2023-07-30T22:16:28.783Z,5.73
2023-07-30T22:18:55.233Z,10.10
2023-07-30T22:21:21.640Z,7.60
2023-07-30T22:23:48.089Z,7.43
2023-07-30T22:26:14.577Z,6.07
2023-07-30T22:28:41.277Z,7.23
2023-07-30T22:31:07.861Z,7.73
2023-07-30T22:33:34.341Z,8.67
2023-07-30T22:36:00.764Z,7.67
2023-07-30T22:38:27.901Z,7.53
2023-07-30T22:40:54.411Z,7.53
2023-07-30T22:43:22.298Z,6.37
2023-07-30T22:45:48.807Z,9.73
2023-07-30T22:48:15.374Z,7.53
2023-07-30T22:50:44.135Z,6.17
2023-07-30T22:53:10.664Z,7.87
2023-07-30T22:55:37.386Z,7.63
2023-07-30T22:58:03.932Z,6.93
2023-07-30T23:00:30.776Z,8.10
2023-07-30T23:02:57.331Z,8.53
2023-07-30T23:05:24.064Z,8.43
2023-07-30T23:07:50.672Z,7.03
2023-07-30T23:10:17.221Z,8.90
2023-07-30T23:12:44.467Z,9.50
2023-07-30T23:15:10.972Z,8.13
2023-07-30T23:17:38.212Z,7.40
2023-07-30T23:20:05.724Z,8.37
2023-07-30T23:22:32.328Z,8.33
2023-07-30T23:24:58.794Z,7.50
2023-07-30T23:27:25.408Z,10.23
2023-07-30T23:29:52.213Z,8.23
2023-07-30T23:32:18.821Z,8.73
2023-07-30T23:34:45.278Z,9.17
2023-07-30T23:37:11.726Z,9.60
2023-07-30T23:39:38.479Z,8.73
2023-07-30T23:42:05.260Z,6.20
2023-07-30T23:44:31.702Z,6.70
2023-07-30T23:46:58.209Z,8.57
2023-07-30T23:49:24.632Z,7.60
2023-07-30T23:51:51.268Z,7.37
2023-07-30T23:54:17.838Z,8.03
2023-07-30T23:56:44.309Z,7.13
2023-07-30T23:59:10.780Z,7.93
